sensor_id;sensor_type;location;lat;lon;timestamp;P1;durP1;ratioP1;P2;durP2;ratioP2
43670;SDS011;29267;50.906;7.248;2023-07-16T00:02:03;4.07;;;1.85;;
43670;SDS011;29267;50.906;7.248;2023-07-16T00:04:30;6.50;;;1.58;;
43670;SDS011;29267;50.906;7.248;2023-07-16T00:06:56;2.33;;;1.15;;
43670;SDS011;29267;50.906;7.248;2023-07-16T00:09:21;3.22;;;1.33;;
43670;SDS011;29267;50.906;7.248;2023-07-16T00:11:47;5.60;;;1.67;;
43670;SDS011;29267;50.906;7.248;2023-07-16T00:14:13;8.82;;;1.60;;
43670;SDS011;29267;50.906;7.248;2023-07-16T00:16:38;3.72;;;1.35;;
43670;SDS011;29267;50.906;7.248;2023-07-16T00:19:04;2.17;;;1.02;;
43670;SDS011;29267;50.906;7.248;2023-07-16T00:21:30;2.25;;;1.38;;
43670;SDS011;29267;50.906;7.248;2023-07-16T00:23:55;2.03;;;1.42;;
43670;SDS011;29267;50.906;7.248;2023-07-16T00:26:21;3.40;;;1.27;;
43670;SDS011;29267;50.906;7.248;2023-07-16T00:28:47;5.03;;;1.63;;
43670;SDS011;29267;50.906;7.248;2023-07-16T00:31:12;2.95;;;1.40;;
43670;SDS011;29267;50.906;7.248;2023-07-16T00:33:39;3.13;;;1.50;;
43670;SDS011;29267;50.906;7.248;2023-07-16T00:36:04;2.80;;;1.42;;
43670;SDS011;29267;50.906;7.248;2023-07-16T00:38:30;1.70;;;1.20;;
43670;SDS011;29267;50.906;7.248;2023-07-16T00:40:56;5.55;;;1.55;;
43670;SDS011;29267;50.906;7.248;2023-07-16T00:43:21;4.07;;;1.48;;
43670;SDS011;29267;50.906;7.248;2023-07-16T00:45:47;3.15;;;1.65;;
43670;SDS011;29267;50.906;7.248;2023-07-16T00:48:14;3.97;;;1.63;;
43670;SDS011;29267;50.906;7.248;2023-07-16T00:50:40;3.83;;;1.60;;
43670;SDS011;29267;50.906;7.248;2023-07-16T00:53:06;6.28;;;1.77;;
43670;SDS011;29267;50.906;7.248;2023-07-16T00:55:36;5.65;;;1.67;;
43670;SDS011;29267;50.906;7.248;2023-07-16T00:58:03;4.25;;;1.40;;
43670;SDS011;29267;50.906;7.248;2023-07-16T01:00:31;1.85;;;1.17;;
43670;SDS011;29267;50.906;7.248;2023-07-16T01:02:57;4.20;;;1.92;;
43670;SDS011;29267;50.906;7.248;2023-07-16T01:05:23;2.15;;;1.33;;
43670;SDS011;29267;50.906;7.248;2023-07-16T01:07:55;5.22;;;1.60;;
43670;SDS011;29267;50.906;7.248;2023-07-16T01:10:24;3.42;;;1.42;;
43670;SDS011;29267;50.906;7.248;2023-07-16T01:12:53;6.95;;;1.60;;
43670;SDS011;29267;50.906;7.248;2023-07-16T01:15:20;4.85;;;1.90;;
43670;SDS011;29267;50.906;7.248;2023-07-16T01:17:46;5.30;;;1.55;;
43670;SDS011;29267;50.906;7.248;2023-07-16T01:20:11;3.83;;;1.27;;
43670;SDS011;29267;50.906;7.248;2023-07-16T01:25:39;2.53;;;1.73;;
43670;SDS011;29267;50.906;7.248;2023-07-16T01:31:21;2.17;;;1.38;;
43670;SDS011;29267;50.906;7.248;2023-07-16T01:33:48;3.17;;;1.83;;
43670;SDS011;29267;50.906;7.248;2023-07-16T01:36:16;5.70;;;2.15;;
43670;SDS011;29267;50.906;7.248;2023-07-16T01:38:43;5.72;;;1.50;;
43670;SDS011;29267;50.906;7.248;2023-07-16T01:41:10;2.33;;;1.35;;
43670;SDS011;29267;50.906;7.248;2023-07-16T01:43:36;3.20;;;1.98;;
43670;SDS011;29267;50.906;7.248;2023-07-16T01:46:01;1.90;;;1.42;;
43670;SDS011;29267;50.906;7.248;2023-07-16T01:50:57;3.47;;;1.50;;
43670;SDS011;29267;50.906;7.248;2023-07-16T01:53:22;3.20;;;1.20;;
43670;SDS011;29267;50.906;7.248;2023-07-16T01:55:48;4.22;;;1.60;;
43670;SDS011;29267;50.906;7.248;2023-07-16T01:58:14;7.05;;;1.75;;
43670;SDS011;29267;50.906;7.248;2023-07-16T02:00:39;4.63;;;1.38;;
43670;SDS011;29267;50.906;7.248;2023-07-16T02:03:05;4.20;;;1.65;;
43670;SDS011;29267;50.906;7.248;2023-07-16T02:05:31;2.15;;;1.27;;
43670;SDS011;29267;50.906;7.248;2023-07-16T02:07:56;4.40;;;1.40;;
43670;SDS011;29267;50.906;7.248;2023-07-16T02:10:22;5.82;;;1.73;;
43670;SDS011;29267;50.906;7.248;2023-07-16T02:12:48;2.97;;;1.33;;
43670;SDS011;29267;50.906;7.248;2023-07-16T02:15:13;3.63;;;1.67;;
43670;SDS011;29267;50.906;7.248;2023-07-16T02:17:39;4.95;;;1.70;;
43670;SDS011;29267;50.906;7.248;2023-07-16T02:20:06;6.50;;;1.70;;
43670;SDS011;29267;50.906;7.248;2023-07-16T02:22:33;6.25;;;1.30;;
43670;SDS011;29267;50.906;7.248;2023-07-16T02:25:00;2.65;;;1.65;;
43670;SDS011;29267;50.906;7.248;2023-07-16T02:27:26;4.00;;;1.40;;
43670;SDS011;29267;50.906;7.248;2023-07-16T02:29:51;6.10;;;1.85;;
43670;SDS011;29267;50.906;7.248;2023-07-16T02:32:17;3.33;;;1.50;;
43670;SDS011;29267;50.906;7.248;2023-07-16T02:34:43;2.60;;;1.55;;
43670;SDS011;29267;50.906;7.248;2023-07-16T02:37:08;3.75;;;1.38;;
43670;SDS011;29267;50.906;7.248;2023-07-16T02:39:34;4.10;;;1.52;;
43670;SDS011;29267;50.906;7.248;2023-07-16T02:41:59;3.35;;;1.77;;
43670;SDS011;29267;50.906;7.248;2023-07-16T02:44:25;5.22;;;1.30;;
43670;SDS011;29267;50.906;7.248;2023-07-16T02:46:50;8.82;;;1.83;;
43670;SDS011;29267;50.906;7.248;2023-07-16T02:49:16;7.47;;;1.60;;
43670;SDS011;29267;50.906;7.248;2023-07-16T02:51:42;2.35;;;1.10;;
43670;SDS011;29267;50.906;7.248;2023-07-16T02:54:07;2.58;;;1.45;;
43670;SDS011;29267;50.906;7.248;2023-07-16T02:56:33;4.10;;;1.50;;
43670;SDS011;29267;50.906;7.248;2023-07-16T02:58:59;3.67;;;1.40;;
43670;SDS011;29267;50.906;7.248;2023-07-16T03:01:25;2.72;;;1.13;;
43670;SDS011;29267;50.906;7.248;2023-07-16T03:03:51;10.00;;;1.90;;
43670;SDS011;29267;50.906;7.248;2023-07-16T03:06:16;5.68;;;1.73;;
43670;SDS011;29267;50.906;7.248;2023-07-16T03:08:42;5.38;;;1.98;;
43670;SDS011;29267;50.906;7.248;2023-07-16T03:11:07;5.80;;;1.52;;
43670;SDS011;29267;50.906;7.248;2023-07-16T03:13:33;5.38;;;1.33;;
43670;SDS011;29267;50.906;7.248;2023-07-16T03:15:59;6.03;;;1.45;;
43670;SDS011;29267;50.906;7.248;2023-07-16T03:18:28;7.78;;;1.38;;
43670;SDS011;29267;50.906;7.248;2023-07-16T03:20:57;4.15;;;1.50;;
43670;SDS011;29267;50.906;7.248;2023-07-16T03:23:23;4.70;;;1.40;;
43670;SDS011;29267;50.906;7.248;2023-07-16T03:25:49;3.28;;;1.40;;
43670;SDS011;29267;50.906;7.248;2023-07-16T03:28:16;5.25;;;1.40;;
43670;SDS011;29267;50.906;7.248;2023-07-16T03:30:45;8.32;;;1.83;;
43670;SDS011;29267;50.906;7.248;2023-07-16T03:33:14;9.93;;;1.70;;
43670;SDS011;29267;50.906;7.248;2023-07-16T03:35:44;6.20;;;2.38;;
43670;SDS011;29267;50.906;7.248;2023-07-16T03:38:11;6.18;;;1.65;;
43670;SDS011;29267;50.906;7.248;2023-07-16T03:40:36;3.60;;;1.45;;
43670;SDS011;29267;50.906;7.248;2023-07-16T03:43:02;4.90;;;1.70;;
43670;SDS011;29267;50.906;7.248;2023-07-16T03:45:28;4.25;;;1.50;;
43670;SDS011;29267;50.906;7.248;2023-07-16T03:47:54;3.40;;;1.33;;
43670;SDS011;29267;50.906;7.248;2023-07-16T03:50:19;8.55;;;1.50;;
43670;SDS011;29267;50.906;7.248;2023-07-16T03:52:45;3.65;;;1.42;;
43670;SDS011;29267;50.906;7.248;2023-07-16T03:55:10;15.63;;;2.47;;
43670;SDS011;29267;50.906;7.248;2023-07-16T03:57:36;5.30;;;1.70;;
43670;SDS011;29267;50.906;7.248;2023-07-16T04:00:02;6.40;;;1.40;;
43670;SDS011;29267;50.906;7.248;2023-07-16T04:02:31;4.65;;;1.73;;
43670;SDS011;29267;50.906;7.248;2023-07-16T04:04:56;3.95;;;1.48;;
43670;SDS011;29267;50.906;7.248;2023-07-16T04:07:22;10.10;;;2.05;;
43670;SDS011;29267;50.906;7.248;2023-07-16T04:09:47;6.65;;;1.40;;
43670;SDS011;29267;50.906;7.248;2023-07-16T04:12:13;7.47;;;1.83;;
43670;SDS011;29267;50.906;7.248;2023-07-16T04:14:38;6.15;;;1.73;;
43670;SDS011;29267;50.906;7.248;2023-07-16T04:17:04;4.55;;;1.45;;
43670;SDS011;29267;50.906;7.248;2023-07-16T04:19:30;5.18;;;2.53;;
43670;SDS011;29267;50.906;7.248;2023-07-16T04:21:55;3.60;;;1.48;;
43670;SDS011;29267;50.906;7.248;2023-07-16T04:24:21;6.90;;;1.80;;
43670;SDS011;29267;50.906;7.248;2023-07-16T04:26:46;5.57;;;1.83;;
43670;SDS011;29267;50.906;7.248;2023-07-16T04:29:12;7.60;;;2.10;;
43670;SDS011;29267;50.906;7.248;2023-07-16T04:31:38;7.25;;;1.60;;
43670;SDS011;29267;50.906;7.248;2023-07-16T04:34:03;3.15;;;1.50;;
43670;SDS011;29267;50.906;7.248;2023-07-16T04:36:29;6.50;;;1.88;;
43670;SDS011;29267;50.906;7.248;2023-07-16T04:38:54;4.53;;;1.27;;
43670;SDS011;29267;50.906;7.248;2023-07-16T04:41:20;5.00;;;1.63;;
43670;SDS011;29267;50.906;7.248;2023-07-16T04:43:45;3.00;;;1.00;;
43670;SDS011;29267;50.906;7.248;2023-07-16T04:46:11;5.90;;;1.60;;
43670;SDS011;29267;50.906;7.248;2023-07-16T04:48:37;4.13;;;1.13;;
43670;SDS011;29267;50.906;7.248;2023-07-16T04:51:02;5.32;;;1.23;;
43670;SDS011;29267;50.906;7.248;2023-07-16T04:53:28;4.68;;;1.35;;
43670;SDS011;29267;50.906;7.248;2023-07-16T04:55:53;6.38;;;1.45;;
43670;SDS011;29267;50.906;7.248;2023-07-16T04:58:19;2.88;;;0.90;;
43670;SDS011;29267;50.906;7.248;2023-07-16T05:00:45;5.50;;;1.63;;
43670;SDS011;29267;50.906;7.248;2023-07-16T05:03:10;3.33;;;1.30;;
43670;SDS011;29267;50.906;7.248;2023-07-16T05:05:36;4.35;;;1.25;;
43670;SDS011;29267;50.906;7.248;2023-07-16T05:08:01;3.90;;;1.40;;
43670;SDS011;29267;50.906;7.248;2023-07-16T05:10:27;6.63;;;1.33;;
43670;SDS011;29267;50.906;7.248;2023-07-16T05:12:53;6.20;;;1.55;;
43670;SDS011;29267;50.906;7.248;2023-07-16T05:15:19;4.20;;;1.60;;
43670;SDS011;29267;50.906;7.248;2023-07-16T05:17:44;5.88;;;1.70;;
43670;SDS011;29267;50.906;7.248;2023-07-16T05:20:10;3.08;;;1.13;;
43670;SDS011;29267;50.906;7.248;2023-07-16T05:22:36;9.13;;;1.50;;
43670;SDS011;29267;50.906;7.248;2023-07-16T05:25:01;6.43;;;1.55;;
43670;SDS011;29267;50.906;7.248;2023-07-16T05:27:27;2.80;;;1.20;;
43670;SDS011;29267;50.906;7.248;2023-07-16T05:29:53;2.85;;;1.25;;
43670;SDS011;29267;50.906;7.248;2023-07-16T05:32:19;3.17;;;1.55;;
43670;SDS011;29267;50.906;7.248;2023-07-16T05:34:45;5.47;;;1.92;;
43670;SDS011;29267;50.906;7.248;2023-07-16T05:37:11;3.10;;;1.38;;
43670;SDS011;29267;50.906;7.248;2023-07-16T05:39:37;4.35;;;1.77;;
43670;SDS011;29267;50.906;7.248;2023-07-16T05:42:02;3.28;;;1.20;;
43670;SDS011;29267;50.906;7.248;2023-07-16T05:44:29;5.47;;;1.33;;
43670;SDS011;29267;50.906;7.248;2023-07-16T05:46:54;7.10;;;1.90;;
43670;SDS011;29267;50.906;7.248;2023-07-16T05:49:20;9.73;;;1.65;;
43670;SDS011;29267;50.906;7.248;2023-07-16T05:51:45;6.07;;;1.60;;
43670;SDS011;29267;50.906;7.248;2023-07-16T05:54:11;4.38;;;1.48;;
43670;SDS011;29267;50.906;7.248;2023-07-16T05:56:36;4.97;;;1.70;;
43670;SDS011;29267;50.906;7.248;2023-07-16T05:59:02;5.05;;;1.48;;
43670;SDS011;29267;50.906;7.248;2023-07-16T06:01:27;4.07;;;1.52;;
43670;SDS011;29267;50.906;7.248;2023-07-16T06:03:53;5.68;;;1.30;;
43670;SDS011;29267;50.906;7.248;2023-07-16T06:06:19;5.00;;;1.92;;
43670;SDS011;29267;50.906;7.248;2023-07-16T06:08:44;7.20;;;2.13;;
43670;SDS011;29267;50.906;7.248;2023-07-16T06:11:11;2.63;;;1.80;;
43670;SDS011;29267;50.906;7.248;2023-07-16T06:13:37;3.08;;;1.50;;
43670;SDS011;29267;50.906;7.248;2023-07-16T06:16:03;4.70;;;1.58;;
43670;SDS011;29267;50.906;7.248;2023-07-16T06:18:29;9.15;;;1.95;;
43670;SDS011;29267;50.906;7.248;2023-07-16T06:20:54;4.90;;;1.90;;
43670;SDS011;29267;50.906;7.248;2023-07-16T06:23:20;6.10;;;1.70;;
43670;SDS011;29267;50.906;7.248;2023-07-16T06:25:46;6.20;;;2.28;;
43670;SDS011;29267;50.906;7.248;2023-07-16T06:28:15;2.28;;;1.50;;
43670;SDS011;29267;50.906;7.248;2023-07-16T06:30:40;4.60;;;1.75;;
43670;SDS011;29267;50.906;7.248;2023-07-16T06:33:06;8.40;;;3.05;;
43670;SDS011;29267;50.906;7.248;2023-07-16T06:35:32;5.75;;;2.10;;
43670;SDS011;29267;50.906;7.248;2023-07-16T06:37:58;6.25;;;3.00;;
43670;SDS011;29267;50.906;7.248;2023-07-16T06:40:24;6.70;;;2.60;;
43670;SDS011;29267;50.906;7.248;2023-07-16T06:42:49;6.63;;;2.15;;
43670;SDS011;29267;50.906;7.248;2023-07-16T06:45:17;5.10;;;2.03;;
43670;SDS011;29267;50.906;7.248;2023-07-16T06:47:42;6.32;;;2.47;;
43670;SDS011;29267;50.906;7.248;2023-07-16T06:50:08;7.63;;;2.28;;
43670;SDS011;29267;50.906;7.248;2023-07-16T06:52:34;5.05;;;2.38;;
43670;SDS011;29267;50.906;7.248;2023-07-16T06:55:00;6.75;;;2.08;;
43670;SDS011;29267;50.906;7.248;2023-07-16T06:57:25;8.15;;;2.40;;
43670;SDS011;29267;50.906;7.248;2023-07-16T06:59:51;5.55;;;2.20;;
43670;SDS011;29267;50.906;7.248;2023-07-16T07:02:17;6.53;;;2.40;;
43670;SDS011;29267;50.906;7.248;2023-07-16T07:04:43;5.10;;;2.00;;
43670;SDS011;29267;50.906;7.248;2023-07-16T07:07:09;5.38;;;2.08;;
43670;SDS011;29267;50.906;7.248;2023-07-16T07:09:35;5.95;;;2.25;;
43670;SDS011;29267;50.906;7.248;2023-07-16T07:12:00;7.38;;;2.72;;
43670;SDS011;29267;50.906;7.248;2023-07-16T07:14:26;4.68;;;2.00;;
43670;SDS011;29267;50.906;7.248;2023-07-16T07:16:52;8.13;;;2.30;;
43670;SDS011;29267;50.906;7.248;2023-07-16T07:19:17;4.82;;;2.30;;
43670;SDS011;29267;50.906;7.248;2023-07-16T07:21:43;8.07;;;2.63;;
43670;SDS011;29267;50.906;7.248;2023-07-16T07:24:09;6.60;;;2.47;;
43670;SDS011;29267;50.906;7.248;2023-07-16T07:26:34;3.47;;;2.33;;
43670;SDS011;29267;50.906;7.248;2023-07-16T07:29:00;8.02;;;2.30;;
43670;SDS011;29267;50.906;7.248;2023-07-16T07:31:26;6.63;;;2.50;;
43670;SDS011;29267;50.906;7.248;2023-07-16T07:33:51;6.32;;;2.63;;
43670;SDS011;29267;50.906;7.248;2023-07-16T07:36:18;7.93;;;2.65;;
43670;SDS011;29267;50.906;7.248;2023-07-16T07:38:44;6.55;;;2.92;;
43670;SDS011;29267;50.906;7.248;2023-07-16T07:41:10;4.25;;;2.25;;
43670;SDS011;29267;50.906;7.248;2023-07-16T07:43:35;7.25;;;2.80;;
43670;SDS011;29267;50.906;7.248;2023-07-16T07:46:01;4.55;;;2.35;;
43670;SDS011;29267;50.906;7.248;2023-07-16T07:48:26;7.22;;;2.97;;
43670;SDS011;29267;50.906;7.248;2023-07-16T07:50:52;7.10;;;3.00;;
43670;SDS011;29267;50.906;7.248;2023-07-16T07:53:18;4.63;;;2.60;;
43670;SDS011;29267;50.906;7.248;2023-07-16T07:55:44;5.50;;;3.05;;
43670;SDS011;29267;50.906;7.248;2023-07-16T07:58:10;5.40;;;3.17;;
43670;SDS011;29267;50.906;7.248;2023-07-16T08:00:36;5.13;;;2.55;;
43670;SDS011;29267;50.906;7.248;2023-07-16T08:03:02;7.05;;;2.10;;
43670;SDS011;29267;50.906;7.248;2023-07-16T08:05:28;4.68;;;2.38;;
43670;SDS011;29267;50.906;7.248;2023-07-16T08:07:54;3.85;;;2.28;;
43670;SDS011;29267;50.906;7.248;2023-07-16T08:10:20;6.93;;;2.50;;
43670;SDS011;29267;50.906;7.248;2023-07-16T08:12:46;7.40;;;3.30;;
43670;SDS011;29267;50.906;7.248;2023-07-16T08:15:12;5.30;;;2.65;;
43670;SDS011;29267;50.906;7.248;2023-07-16T08:17:41;5.72;;;2.95;;
43670;SDS011;29267;50.906;7.248;2023-07-16T08:20:07;8.25;;;2.50;;
43670;SDS011;29267;50.906;7.248;2023-07-16T08:22:34;6.88;;;2.63;;
43670;SDS011;29267;50.906;7.248;2023-07-16T08:24:59;4.28;;;2.75;;
43670;SDS011;29267;50.906;7.248;2023-07-16T08:27:25;5.22;;;2.65;;
43670;SDS011;29267;50.906;7.248;2023-07-16T08:29:50;6.53;;;2.78;;
43670;SDS011;29267;50.906;7.248;2023-07-16T08:32:16;6.82;;;2.60;;
43670;SDS011;29267;50.906;7.248;2023-07-16T08:34:42;5.00;;;3.35;;
43670;SDS011;29267;50.906;7.248;2023-07-16T08:37:07;5.30;;;2.60;;
43670;SDS011;29267;50.906;7.248;2023-07-16T08:39:33;5.82;;;2.58;;
43670;SDS011;29267;50.906;7.248;2023-07-16T08:41:58;5.43;;;2.30;;
43670;SDS011;29267;50.906;7.248;2023-07-16T08:44:24;4.90;;;2.80;;
43670;SDS011;29267;50.906;7.248;2023-07-16T08:46:51;7.80;;;2.75;;
43670;SDS011;29267;50.906;7.248;2023-07-16T08:49:17;4.55;;;2.70;;
43670;SDS011;29267;50.906;7.248;2023-07-16T08:51:45;5.63;;;2.67;;
43670;SDS011;29267;50.906;7.248;2023-07-16T08:54:13;7.13;;;3.35;;
43670;SDS011;29267;50.906;7.248;2023-07-16T08:56:42;5.15;;;3.00;;
43670;SDS011;29267;50.906;7.248;2023-07-16T08:59:10;8.73;;;2.67;;
43670;SDS011;29267;50.906;7.248;2023-07-16T09:01:36;5.72;;;2.78;;
43670;SDS011;29267;50.906;7.248;2023-07-16T09:04:02;5.90;;;2.90;;
43670;SDS011;29267;50.906;7.248;2023-07-16T09:06:28;7.15;;;2.72;;
43670;SDS011;29267;50.906;7.248;2023-07-16T09:08:54;5.18;;;3.00;;
43670;SDS011;29267;50.906;7.248;2023-07-16T09:11:20;6.90;;;3.05;;
43670;SDS011;29267;50.906;7.248;2023-07-16T09:13:47;5.63;;;2.88;;
43670;SDS011;29267;50.906;7.248;2023-07-16T09:16:13;8.80;;;3.10;;
43670;SDS011;29267;50.906;7.248;2023-07-16T09:18:41;3.95;;;2.42;;
43670;SDS011;29267;50.906;7.248;2023-07-16T09:21:08;5.28;;;2.97;;
43670;SDS011;29267;50.906;7.248;2023-07-16T09:23:34;4.10;;;2.67;;
43670;SDS011;29267;50.906;7.248;2023-07-16T09:25:59;7.10;;;2.55;;
43670;SDS011;29267;50.906;7.248;2023-07-16T09:28:25;6.97;;;2.30;;
43670;SDS011;29267;50.906;7.248;2023-07-16T09:30:51;4.18;;;2.40;;
43670;SDS011;29267;50.906;7.248;2023-07-16T09:33:18;3.33;;;2.25;;
43670;SDS011;29267;50.906;7.248;2023-07-16T09:35:47;4.85;;;2.17;;
43670;SDS011;29267;50.906;7.248;2023-07-16T09:38:13;8.10;;;2.50;;
43670;SDS011;29267;50.906;7.248;2023-07-16T09:40:40;5.97;;;2.22;;
43670;SDS011;29267;50.906;7.248;2023-07-16T09:43:09;5.40;;;2.50;;
43670;SDS011;29267;50.906;7.248;2023-07-16T09:45:38;3.83;;;2.20;;
43670;SDS011;29267;50.906;7.248;2023-07-16T09:48:04;6.40;;;2.35;;
43670;SDS011;29267;50.906;7.248;2023-07-16T09:50:33;3.70;;;2.10;;
43670;SDS011;29267;50.906;7.248;2023-07-16T09:53:00;4.90;;;2.13;;
43670;SDS011;29267;50.906;7.248;2023-07-16T09:55:30;6.32;;;2.33;;
43670;SDS011;29267;50.906;7.248;2023-07-16T09:57:59;6.53;;;2.13;;
43670;SDS011;29267;50.906;7.248;2023-07-16T10:00:27;2.78;;;1.90;;
43670;SDS011;29267;50.906;7.248;2023-07-16T10:02:53;4.60;;;1.90;;
43670;SDS011;29267;50.906;7.248;2023-07-16T10:05:27;5.53;;;2.35;;
43670;SDS011;29267;50.906;7.248;2023-07-16T10:07:54;7.70;;;2.55;;
43670;SDS011;29267;50.906;7.248;2023-07-16T10:10:40;3.58;;;2.22;;
43670;SDS011;29267;50.906;7.248;2023-07-16T10:13:06;5.03;;;1.80;;
43670;SDS011;29267;50.906;7.248;2023-07-16T10:15:33;4.72;;;2.05;;
43670;SDS011;29267;50.906;7.248;2023-07-16T10:17:59;6.70;;;2.72;;
43670;SDS011;29267;50.906;7.248;2023-07-16T10:20:29;6.00;;;2.55;;
43670;SDS011;29267;50.906;7.248;2023-07-16T10:22:55;6.85;;;2.35;;
43670;SDS011;29267;50.906;7.248;2023-07-16T10:25:22;3.65;;;1.90;;
43670;SDS011;29267;50.906;7.248;2023-07-16T10:27:50;5.28;;;2.00;;
43670;SDS011;29267;50.906;7.248;2023-07-16T10:30:17;4.53;;;2.10;;
43670;SDS011;29267;50.906;7.248;2023-07-16T10:32:43;6.00;;;2.20;;
43670;SDS011;29267;50.906;7.248;2023-07-16T10:35:09;5.22;;;2.58;;
43670;SDS011;29267;50.906;7.248;2023-07-16T10:37:36;4.88;;;2.08;;
43670;SDS011;29267;50.906;7.248;2023-07-16T10:40:03;6.65;;;2.25;;
43670;SDS011;29267;50.906;7.248;2023-07-16T10:42:29;3.20;;;1.77;;
43670;SDS011;29267;50.906;7.248;2023-07-16T10:45:00;4.78;;;2.20;;
43670;SDS011;29267;50.906;7.248;2023-07-16T10:47:33;5.72;;;2.30;;
43670;SDS011;29267;50.906;7.248;2023-07-16T10:52:27;4.05;;;1.80;;
43670;SDS011;29267;50.906;7.248;2023-07-16T10:54:53;5.43;;;1.90;;
43670;SDS011;29267;50.906;7.248;2023-07-16T10:57:23;9.35;;;2.35;;
43670;SDS011;29267;50.906;7.248;2023-07-16T10:59:50;3.47;;;2.10;;
43670;SDS011;29267;50.906;7.248;2023-07-16T11:02:16;4.57;;;1.90;;
43670;SDS011;29267;50.906;7.248;2023-07-16T11:04:43;5.50;;;1.70;;
43670;SDS011;29267;50.906;7.248;2023-07-16T11:07:10;5.75;;;2.33;;
43670;SDS011;29267;50.906;7.248;2023-07-16T11:09:44;5.68;;;1.92;;
43670;SDS011;29267;50.906;7.248;2023-07-16T11:12:14;1.98;;;1.60;;
43670;SDS011;29267;50.906;7.248;2023-07-16T11:14:48;7.72;;;2.03;;
43670;SDS011;29267;50.906;7.248;2023-07-16T11:17:18;3.05;;;1.63;;
43670;SDS011;29267;50.906;7.248;2023-07-16T11:19:45;8.23;;;1.98;;
43670;SDS011;29267;50.906;7.248;2023-07-16T11:22:12;6.50;;;2.00;;
43670;SDS011;29267;50.906;7.248;2023-07-16T11:24:39;3.80;;;2.05;;
43670;SDS011;29267;50.906;7.248;2023-07-16T11:27:16;6.30;;;2.30;;
43670;SDS011;29267;50.906;7.248;2023-07-16T11:29:46;7.28;;;2.47;;
43670;SDS011;29267;50.906;7.248;2023-07-16T11:35:23;3.38;;;2.13;;
43670;SDS011;29267;50.906;7.248;2023-07-16T11:37:48;6.40;;;2.35;;
43670;SDS011;29267;50.906;7.248;2023-07-16T11:40:17;5.55;;;2.72;;
43670;SDS011;29267;50.906;7.248;2023-07-16T11:42:44;6.47;;;1.95;;
43670;SDS011;29267;50.906;7.248;2023-07-16T11:45:23;6.05;;;1.95;;
43670;SDS011;29267;50.906;7.248;2023-07-16T11:47:53;4.88;;;2.13;;
43670;SDS011;29267;50.906;7.248;2023-07-16T11:50:19;5.03;;;2.00;;
43670;SDS011;29267;50.906;7.248;2023-07-16T11:52:54;3.78;;;1.90;;
43670;SDS011;29267;50.906;7.248;2023-07-16T11:55:21;7.13;;;2.70;;
43670;SDS011;29267;50.906;7.248;2023-07-16T11:57:47;5.00;;;2.08;;
43670;SDS011;29267;50.906;7.248;2023-07-16T12:00:13;6.07;;;2.30;;
43670;SDS011;29267;50.906;7.248;2023-07-16T12:02:39;6.13;;;2.33;;
43670;SDS011;29267;50.906;7.248;2023-07-16T12:05:04;4.10;;;2.05;;
43670;SDS011;29267;50.906;7.248;2023-07-16T12:07:33;4.95;;;1.88;;
43670;SDS011;29267;50.906;7.248;2023-07-16T12:10:03;9.17;;;1.97;;
43670;SDS011;29267;50.906;7.248;2023-07-16T12:12:30;7.43;;;2.08;;
43670;SDS011;29267;50.906;7.248;2023-07-16T12:14:56;6.80;;;2.13;;
43670;SDS011;29267;50.906;7.248;2023-07-16T12:17:21;4.43;;;1.98;;
43670;SDS011;29267;50.906;7.248;2023-07-16T12:19:47;3.97;;;1.70;;
43670;SDS011;29267;50.906;7.248;2023-07-16T12:22:13;4.78;;;2.08;;
43670;SDS011;29267;50.906;7.248;2023-07-16T12:24:42;3.03;;;1.98;;
43670;SDS011;29267;50.906;7.248;2023-07-16T12:27:08;4.05;;;2.40;;
43670;SDS011;29267;50.906;7.248;2023-07-16T12:29:34;4.68;;;2.20;;
43670;SDS011;29267;50.906;7.248;2023-07-16T12:31:59;5.65;;;2.33;;
43670;SDS011;29267;50.906;7.248;2023-07-16T12:34:25;5.72;;;1.90;;
43670;SDS011;29267;50.906;7.248;2023-07-16T12:36:51;4.68;;;1.60;;
43670;SDS011;29267;50.906;7.248;2023-07-16T12:39:16;6.20;;;1.95;;
43670;SDS011;29267;50.906;7.248;2023-07-16T12:41:45;5.43;;;2.10;;
43670;SDS011;29267;50.906;7.248;2023-07-16T12:44:11;10.25;;;2.17;;
43670;SDS011;29267;50.906;7.248;2023-07-16T12:46:37;6.03;;;2.28;;
43670;SDS011;29267;50.906;7.248;2023-07-16T12:49:02;7.28;;;2.05;;
43670;SDS011;29267;50.906;7.248;2023-07-16T12:51:28;5.80;;;1.95;;
43670;SDS011;29267;50.906;7.248;2023-07-16T12:53:53;4.95;;;2.50;;
43670;SDS011;29267;50.906;7.248;2023-07-16T12:56:19;3.90;;;1.90;;
43670;SDS011;29267;50.906;7.248;2023-07-16T12:58:45;6.93;;;3.03;;
43670;SDS011;29267;50.906;7.248;2023-07-16T13:01:10;3.63;;;2.00;;
43670;SDS011;29267;50.906;7.248;2023-07-16T13:03:36;6.07;;;2.45;;
43670;SDS011;29267;50.906;7.248;2023-07-16T13:06:01;2.80;;;2.10;;
43670;SDS011;29267;50.906;7.248;2023-07-16T13:08:28;3.28;;;2.17;;
43670;SDS011;29267;50.906;7.248;2023-07-16T13:10:54;5.38;;;2.50;;
43670;SDS011;29267;50.906;7.248;2023-07-16T13:13:20;4.10;;;1.90;;
43670;SDS011;29267;50.906;7.248;2023-07-16T13:15:46;5.97;;;2.60;;
43670;SDS011;29267;50.906;7.248;2023-07-16T13:18:11;2.90;;;2.00;;
43670;SDS011;29267;50.906;7.248;2023-07-16T13:20:37;4.22;;;2.17;;
43670;SDS011;29267;50.906;7.248;2023-07-16T13:23:03;4.95;;;2.33;;
43670;SDS011;29267;50.906;7.248;2023-07-16T13:25:29;5.38;;;2.35;;
43670;SDS011;29267;50.906;7.248;2023-07-16T13:27:55;6.32;;;1.85;;
43670;SDS011;29267;50.906;7.248;2023-07-16T13:30:21;5.97;;;2.00;;
43670;SDS011;29267;50.906;7.248;2023-07-16T13:32:48;5.38;;;2.33;;
43670;SDS011;29267;50.906;7.248;2023-07-16T13:35:17;3.90;;;2.05;;
43670;SDS011;29267;50.906;7.248;2023-07-16T13:37:42;5.20;;;1.83;;
43670;SDS011;29267;50.906;7.248;2023-07-16T13:40:08;4.03;;;2.17;;
43670;SDS011;29267;50.906;7.248;2023-07-16T13:42:34;6.72;;;1.95;;
43670;SDS011;29267;50.906;7.248;2023-07-16T13:45:00;4.85;;;2.17;;
43670;SDS011;29267;50.906;7.248;2023-07-16T13:47:26;4.15;;;1.80;;
43670;SDS011;29267;50.906;7.248;2023-07-16T13:49:51;6.60;;;2.30;;
43670;SDS011;29267;50.906;7.248;2023-07-16T13:52:17;4.22;;;1.88;;
43670;SDS011;29267;50.906;7.248;2023-07-16T13:54:43;5.03;;;1.90;;
43670;SDS011;29267;50.906;7.248;2023-07-16T13:57:09;5.22;;;2.35;;
43670;SDS011;29267;50.906;7.248;2023-07-16T13:59:34;10.30;;;1.83;;
43670;SDS011;29267;50.906;7.248;2023-07-16T14:02:01;5.78;;;2.60;;
43670;SDS011;29267;50.906;7.248;2023-07-16T14:04:28;3.78;;;1.85;;
43670;SDS011;29267;50.906;7.248;2023-07-16T14:06:54;5.28;;;2.58;;
43670;SDS011;29267;50.906;7.248;2023-07-16T14:09:21;4.18;;;2.17;;
43670;SDS011;29267;50.906;7.248;2023-07-16T14:11:47;6.25;;;1.98;;
43670;SDS011;29267;50.906;7.248;2023-07-16T14:14:16;6.65;;;2.65;;
43670;SDS011;29267;50.906;7.248;2023-07-16T14:16:42;4.90;;;1.98;;
43670;SDS011;29267;50.906;7.248;2023-07-16T14:19:08;5.55;;;2.53;;
43670;SDS011;29267;50.906;7.248;2023-07-16T14:21:34;3.95;;;2.08;;
43670;SDS011;29267;50.906;7.248;2023-07-16T14:24:00;5.95;;;2.30;;
43670;SDS011;29267;50.906;7.248;2023-07-16T14:26:26;4.38;;;2.38;;
43670;SDS011;29267;50.906;7.248;2023-07-16T14:28:51;4.90;;;2.40;;
43670;SDS011;29267;50.906;7.248;2023-07-16T14:31:18;6.07;;;2.15;;
43670;SDS011;29267;50.906;7.248;2023-07-16T14:33:44;4.50;;;2.05;;
43670;SDS011;29267;50.906;7.248;2023-07-16T14:36:09;8.10;;;2.35;;
43670;SDS011;29267;50.906;7.248;2023-07-16T14:38:35;3.78;;;1.80;;
43670;SDS011;29267;50.906;7.248;2023-07-16T14:41:00;4.28;;;1.77;;
43670;SDS011;29267;50.906;7.248;2023-07-16T14:43:26;3.03;;;1.70;;
43670;SDS011;29267;50.906;7.248;2023-07-16T14:45:52;2.75;;;1.63;;
43670;SDS011;29267;50.906;7.248;2023-07-16T14:48:17;7.10;;;2.25;;
43670;SDS011;29267;50.906;7.248;2023-07-16T14:50:43;8.45;;;2.75;;
43670;SDS011;29267;50.906;7.248;2023-07-16T14:53:08;5.90;;;2.30;;
43670;SDS011;29267;50.906;7.248;2023-07-16T14:55:35;4.95;;;2.08;;
43670;SDS011;29267;50.906;7.248;2023-07-16T14:58:01;4.00;;;2.13;;